createdAt,value
2022-09-10T00:00:13.073Z,99.90
2022-09-10T00:02:40.045Z,99.90
2022-09-10T00:05:07.544Z,99.90
2022-09-10T00:07:34.256Z,99.90
2022-09-10T00:10:00.985Z,99.90
2022-09-10T00:12:27.705Z,99.90
2022-09-10T00:14:54.518Z,99.90
2022-09-10T00:17:21.304Z,99.90
2022-09-10T00:19:47.993Z,99.90
2022-09-10T00:22:14.969Z,99.90
2022-09-10T00:24:41.777Z,99.90
2022-09-10T00:27:09.190Z,99.90
2022-09-10T00:29:35.876Z,99.90
2022-09-10T00:32:04.316Z,99.90
2022-09-10T00:34:31.093Z,99.90
2022-09-10T00:36:59.344Z,99.90
2022-09-10T00:39:26.106Z,99.90
2022-09-10T00:41:55.110Z,99.90
2022-09-10T00:44:39.962Z,99.90
2022-09-10T00:47:11.373Z,99.90
2022-09-10T00:49:46.508Z,99.90
2022-09-10T00:52:13.983Z,99.90
2022-09-10T00:54:43.513Z,99.90
2022-09-10T00:57:14.902Z,99.90
2022-09-10T00:59:46.620Z,99.90
2022-09-10T01:02:14.953Z,99.90
2022-09-10T01:04:42.968Z,99.90
2022-09-10T01:07:11.263Z,99.90
2022-09-10T01:09:39.785Z,99.90
2022-09-10T01:12:33.149Z,99.90
2022-09-10T01:15:28.857Z,99.90
2022-09-10T01:18:32.820Z,99.90
2022-09-10T01:21:20.482Z,99.90
2022-09-10T01:24:26.264Z,99.90
2022-09-10T01:27:31.445Z,99.90
2022-09-10T01:30:09.528Z,99.90
2022-09-10T01:32:54.864Z,99.90
2022-09-10T01:35:36.499Z,99.90
2022-09-10T01:38:11.437Z,99.90
2022-09-10T01:40:38.699Z,99.90
2022-09-10T01:43:08.449Z,99.90
2022-09-10T01:46:05.487Z,99.90
2022-09-10T01:48:54.685Z,99.90
2022-09-10T01:51:43.405Z,99.90
2022-09-10T01:54:26.340Z,99.90
2022-09-10T01:57:08.062Z,99.90
2022-09-10T02:00:08.805Z,99.90
2022-09-10T02:02:48.550Z,99.90
2022-09-10T02:05:18.672Z,99.90
2022-09-10T02:07:46.609Z,99.90
2022-09-10T02:10:13.292Z,99.90
2022-09-10T02:12:40.141Z,99.90
2022-09-10T02:15:08.567Z,99.90
2022-09-10T02:17:37.858Z,99.90
2022-09-10T02:20:08.556Z,99.90
2022-09-10T02:22:36.818Z,99.90
2022-09-10T02:25:04.717Z,99.90
2022-09-10T02:27:32.959Z,99.90
2022-09-10T02:29:59.634Z,99.90
2022-09-10T02:32:26.351Z,99.90
2022-09-10T02:34:53.049Z,99.90
2022-09-10T02:37:20.217Z,99.90
2022-09-10T02:39:46.991Z,99.90
2022-09-10T02:42:16.969Z,99.90
2022-09-10T02:44:44.764Z,99.90
2022-09-10T02:47:11.683Z,99.90
2022-09-10T02:49:38.366Z,99.90
2022-09-10T02:52:05.234Z,99.90
2022-09-10T02:54:32.549Z,99.90
2022-09-10T02:56:59.336Z,99.90
2022-09-10T02:59:26.110Z,99.90
2022-09-10T03:01:54.491Z,99.90
2022-09-10T03:04:21.314Z,99.90
2022-09-10T03:06:49.468Z,99.90
2022-09-10T03:09:17.143Z,99.90
2022-09-10T03:11:43.825Z,99.90
2022-09-10T03:14:11.959Z,99.90
2022-09-10T03:16:40.189Z,99.90
2022-09-10T03:19:06.954Z,99.90
2022-09-10T03:21:34.424Z,99.90
2022-09-10T03:24:01.251Z,99.90
2022-09-10T03:26:27.948Z,99.90
2022-09-10T03:28:54.781Z,99.90
2022-09-10T03:31:21.819Z,99.90
2022-09-10T03:33:49.195Z,99.90
2022-09-10T03:36:15.990Z,99.90
2022-09-10T03:38:42.686Z,99.90
2022-09-10T03:41:09.865Z,99.90
2022-09-10T03:43:36.926Z,99.90
2022-09-10T03:46:04.021Z,99.90
2022-09-10T03:48:30.811Z,99.90
2022-09-10T03:50:57.552Z,99.90
2022-09-10T03:53:24.253Z,99.90
2022-09-10T03:55:51.871Z,99.90
2022-09-10T03:58:18.988Z,99.90
2022-09-10T04:00:46.637Z,99.90
2022-09-10T04:03:14.618Z,99.90
2022-09-10T04:05:45.089Z,99.90
2022-09-10T04:08:13.169Z,99.90
2022-09-10T04:10:40.961Z,99.90
2022-09-10T04:13:08.057Z,99.90
2022-09-10T04:15:35.049Z,99.90
2022-09-10T04:18:01.826Z,99.90
2022-09-10T04:20:28.676Z,99.90
2022-09-10T04:22:56.758Z,99.90
2022-09-10T04:25:23.657Z,99.90
2022-09-10T04:27:50.816Z,99.90
2022-09-10T04:30:18.319Z,99.90
2022-09-10T04:32:45.346Z,99.90
2022-09-10T04:35:15.384Z,99.90
2022-09-10T04:37:43.200Z,99.90
2022-09-10T04:40:10.612Z,99.90
2022-09-10T04:42:38.322Z,99.90
2022-09-10T04:45:06.224Z,99.90
2022-09-10T04:47:34.122Z,99.90
2022-09-10T04:50:01.094Z,99.90
2022-09-10T04:52:28.933Z,99.90
2022-09-10T04:54:55.648Z,99.90
2022-09-10T04:57:22.563Z,99.90
2022-09-10T04:59:49.246Z,99.90
2022-09-10T05:02:16.105Z,99.90
2022-09-10T05:04:43.380Z,99.90
2022-09-10T05:07:10.106Z,99.90
2022-09-10T05:09:36.856Z,99.90
2022-09-10T05:12:04.290Z,99.90
2022-09-10T05:14:30.985Z,99.90
2022-09-10T05:16:57.837Z,99.90
2022-09-10T05:19:24.534Z,99.90
2022-09-10T05:21:51.586Z,99.90
2022-09-10T05:24:18.328Z,99.90
2022-09-10T05:26:46.284Z,99.90
2022-09-10T05:29:14.005Z,99.90
2022-09-10T05:31:41.024Z,99.90
2022-09-10T05:34:08.942Z,99.90
2022-09-10T05:36:35.827Z,99.90
2022-09-10T05:39:05.676Z,99.90
2022-09-10T05:41:33.123Z,99.90
2022-09-10T05:43:59.981Z,99.90
2022-09-10T05:46:30.920Z,99.90
2022-09-10T05:48:58.153Z,99.90
2022-09-10T05:51:28.662Z,99.90
2022-09-10T05:53:55.553Z,99.90
2022-09-10T05:56:22.207Z,99.90
2022-09-10T05:58:49.732Z,99.90
2022-09-10T06:01:16.502Z,99.90
2022-09-10T06:03:43.170Z,99.90
2022-09-10T06:06:10.089Z,99.90
2022-09-10T06:08:37.068Z,99.90
2022-09-10T06:11:05.846Z,99.90
2022-09-10T06:13:33.966Z,99.90
2022-09-10T06:16:01.325Z,99.90
2022-09-10T06:18:28.678Z,99.90
2022-09-10T06:21:25.016Z,99.90
2022-09-10T06:23:54.729Z,99.90
2022-09-10T06:26:21.426Z,99.90
2022-09-10T06:28:49.856Z,99.90
2022-09-10T06:31:20.071Z,99.90
2022-09-10T06:33:49.022Z,99.90
2022-09-10T06:36:15.894Z,99.90
2022-09-10T06:38:45.054Z,99.90
2022-09-10T06:41:13.643Z,99.90
2022-09-10T06:43:41.393Z,99.90
2022-09-10T06:46:40.845Z,99.90
2022-09-10T06:49:03.682Z,99.90
2022-09-10T06:51:31.099Z,99.90
2022-09-10T06:53:57.885Z,99.90
2022-09-10T06:56:24.645Z,99.90
2022-09-10T06:58:51.754Z,99.90
2022-09-10T07:01:21.551Z,99.90
2022-09-10T07:03:48.491Z,99.90
2022-09-10T07:06:17.056Z,99.90
2022-09-10T07:08:44.226Z,99.90
2022-09-10T07:11:12.972Z,99.90
2022-09-10T07:13:42.251Z,99.90
2022-09-10T07:16:09.687Z,99.90
2022-09-10T07:18:36.748Z,99.90
2022-09-10T07:21:11.919Z,99.90
2022-09-10T07:23:41.867Z,99.90
2022-09-10T07:26:11.509Z,99.90
2022-09-10T07:28:39.813Z,99.90
2022-09-10T07:31:25.628Z,99.90
2022-09-10T07:33:52.864Z,99.90
2022-09-10T07:36:19.539Z,99.90
2022-09-10T07:38:46.477Z,99.90
2022-09-10T07:41:15.447Z,99.90
2022-09-10T07:43:43.811Z,99.90
2022-09-10T07:46:13.325Z,99.90
2022-09-10T07:48:41.578Z,99.90
2022-09-10T07:51:10.814Z,99.90
2022-09-10T07:53:38.623Z,99.90
2022-09-10T07:56:07.952Z,99.90
2022-09-10T07:58:36.000Z,99.90
2022-09-10T08:01:09.029Z,99.90
2022-09-10T08:03:35.777Z,99.90
2022-09-10T08:06:03.262Z,99.90
2022-09-10T08:08:34.876Z,99.90
2022-09-10T08:11:13.028Z,99.90
2022-09-10T08:13:46.176Z,99.90
2022-09-10T08:16:15.554Z,99.90
2022-09-10T08:18:46.955Z,99.90
2022-09-10T08:21:14.553Z,99.90
2022-09-10T08:23:41.657Z,99.90
2022-09-10T08:26:08.668Z,99.90
2022-09-10T08:28:36.314Z,99.90
2022-09-10T08:31:08.914Z,99.90
2022-09-10T08:33:39.863Z,99.90
2022-09-10T08:36:12.054Z,99.90
2022-09-10T08:38:40.210Z,99.90
2022-09-10T08:41:49.409Z,99.90
2022-09-10T08:44:25.275Z,99.90
2022-09-10T08:46:56.437Z,99.90
2022-09-10T08:49:42.237Z,99.90
2022-09-10T08:52:33.943Z,99.90
2022-09-10T08:55:23.422Z,99.90
2022-09-10T08:58:01.658Z,99.90
2022-09-10T09:00:33.419Z,99.90
2022-09-10T09:03:10.002Z,99.90
2022-09-10T09:06:00.880Z,99.90
2022-09-10T09:08:35.558Z,99.90
2022-09-10T09:11:20.439Z,99.90
2022-09-10T09:13:56.509Z,99.90
2022-09-10T09:16:26.325Z,99.90
2022-09-10T09:19:24.086Z,99.90
2022-09-10T09:21:56.153Z,99.90
2022-09-10T09:24:58.931Z,99.70
2022-09-10T09:27:30.088Z,96.80
2022-09-10T09:30:01.799Z,96.80
2022-09-10T09:32:33.901Z,97.60
2022-09-10T09:35:32.583Z,97.20
2022-09-10T09:38:08.167Z,95.40
2022-09-10T09:41:07.363Z,96.80
2022-09-10T09:43:52.812Z,98.40
2022-09-10T09:46:21.548Z,92.90
2022-09-10T09:48:53.731Z,96.50
2022-09-10T09:51:21.441Z,86.40
2022-09-10T09:54:00.976Z,84.70
2022-09-10T09:56:42.164Z,92.60
2022-09-10T09:59:21.860Z,91.40
2022-09-10T10:01:48.860Z,91.10
2022-09-10T10:04:24.688Z,91.00
2022-09-10T10:06:59.963Z,91.70
2022-09-10T10:09:28.981Z,92.10
2022-09-10T10:11:57.927Z,85.90
2022-09-10T10:14:35.310Z,74.40
2022-09-10T10:17:02.593Z,70.70
2022-09-10T10:19:29.337Z,60.60
2022-09-10T10:21:56.055Z,70.70
2022-09-10T10:24:33.835Z,55.90
2022-09-10T10:27:00.881Z,60.10
2022-09-10T10:29:28.487Z,63.10
2022-09-10T10:31:56.312Z,62.70
2022-09-10T10:34:35.538Z,58.50
2022-09-10T10:37:16.252Z,70.70
2022-09-10T10:40:03.354Z,69.40
2022-09-10T10:42:51.246Z,51.40
2022-09-10T10:45:36.610Z,54.80
2022-09-10T10:48:37.423Z,54.60
2022-09-10T10:51:07.343Z,47.70
2022-09-10T10:54:02.911Z,44.60
2022-09-10T10:56:42.699Z,39.40
2022-09-10T10:59:37.151Z,41.50
2022-09-10T11:02:20.461Z,40.40
2022-09-10T11:05:03.583Z,53.80
2022-09-10T11:07:39.455Z,39.40
2022-09-10T11:10:20.073Z,36.00
2022-09-10T11:13:23.947Z,39.10
2022-09-10T11:16:05.702Z,39.40
2022-09-10T11:18:43.877Z,43.60
2022-09-10T11:21:13.327Z,10.70
2022-09-10T11:23:46.326Z,9.40
2022-09-10T11:26:18.666Z,13.40
2022-09-10T11:29:43.942Z,22.10
2022-09-10T11:32:19.158Z,26.30
2022-09-10T11:35:08.518Z,25.40
2022-09-10T11:37:47.616Z,30.10
2022-09-10T11:40:27.739Z,9.30
2022-09-10T11:42:59.988Z,1.10
2022-09-10T11:45:53.682Z,13.20
2022-09-10T11:48:29.105Z,16.00
2022-09-10T11:51:10.707Z,8.90
2022-09-10T11:53:37.458Z,18.70
2022-09-10T11:56:10.275Z,19.30
2022-09-10T11:58:47.380Z,10.90
2022-09-10T12:01:49.933Z,1.90
2022-09-10T12:04:22.352Z,1.50
2022-09-10T12:07:04.375Z,1.00
2022-09-10T12:09:58.249Z,1.00
2022-09-10T12:12:42.478Z,1.00
2022-09-10T12:15:21.709Z,6.40
2022-09-10T12:17:54.464Z,9.30
2022-09-10T12:20:31.947Z,2.30
2022-09-10T12:22:59.753Z,5.80
2022-09-10T12:25:34.583Z,8.00
2022-09-10T12:28:06.439Z,8.00
2022-09-10T12:30:35.927Z,1.00
2022-09-10T12:33:17.464Z,1.00
2022-09-10T12:35:47.753Z,1.00
2022-09-10T12:38:48.826Z,3.90
2022-09-10T12:41:24.761Z,1.00
2022-09-10T12:44:01.376Z,1.00
2022-09-10T12:46:44.998Z,1.00
2022-09-10T12:49:16.610Z,1.00
2022-09-10T12:52:03.192Z,1.00
2022-09-10T12:54:53.742Z,1.00
2022-09-10T12:57:42.105Z,1.00
2022-09-10T13:00:17.975Z,1.00
2022-09-10T13:02:58.315Z,1.00
2022-09-10T13:05:48.247Z,1.00
2022-09-10T13:08:41.471Z,1.00
2022-09-10T13:11:23.775Z,1.00
2022-09-10T13:14:01.031Z,1.00
2022-09-10T13:16:27.993Z,1.00
2022-09-10T13:19:14.906Z,1.00
2022-09-10T13:21:44.332Z,1.00
2022-09-10T13:24:37.440Z,1.00
2022-09-10T13:27:34.687Z,1.00
2022-09-10T13:30:28.741Z,1.00
2022-09-10T13:33:04.401Z,1.00
2022-09-10T13:36:10.701Z,1.00
2022-09-10T13:39:09.737Z,1.00
2022-09-10T13:41:51.533Z,1.00
2022-09-10T13:44:40.258Z,1.00
2022-09-10T13:47:15.372Z,1.00
2022-09-10T13:50:25.499Z,1.00
2022-09-10T13:53:00.023Z,1.00
2022-09-10T13:55:30.458Z,1.00
2022-09-10T13:58:16.547Z,1.00
2022-09-10T14:00:53.746Z,1.00
2022-09-10T14:03:24.817Z,1.00
2022-09-10T14:06:05.149Z,1.00
2022-09-10T14:08:35.680Z,1.00
2022-09-10T14:11:16.456Z,1.00
2022-09-10T14:13:51.843Z,1.00
2022-09-10T14:16:28.312Z,1.00
2022-09-10T14:18:59.782Z,1.00
2022-09-10T14:21:27.530Z,1.00
2022-09-10T14:23:57.195Z,1.00
2022-09-10T14:26:30.184Z,1.00
2022-09-10T14:29:03.457Z,1.00
2022-09-10T14:31:37.551Z,1.00
2022-09-10T14:34:24.866Z,1.00
2022-09-10T14:36:51.665Z,1.00
2022-09-10T14:39:20.518Z,1.00
2022-09-10T14:41:48.286Z,1.00
2022-09-10T14:44:24.017Z,1.00
2022-09-10T14:46:54.200Z,1.00
2022-09-10T14:49:41.867Z,1.00
2022-09-10T14:52:11.823Z,1.00
2022-09-10T14:54:38.710Z,1.00
2022-09-10T14:57:14.737Z,1.00
2022-09-10T14:59:43.871Z,1.00
2022-09-10T15:02:13.622Z,1.00
2022-09-10T15:04:40.440Z,1.00
2022-09-10T15:07:10.128Z,1.00
2022-09-10T15:09:36.834Z,1.00
2022-09-10T15:12:13.548Z,1.00
2022-09-10T15:14:40.275Z,1.00
2022-09-10T15:17:06.970Z,1.00
2022-09-10T15:19:33.701Z,1.00
2022-09-10T15:22:00.548Z,1.00
2022-09-10T15:24:28.297Z,1.00
2022-09-10T15:26:56.416Z,1.00
2022-09-10T15:29:23.790Z,1.00
2022-09-10T15:31:51.717Z,1.00
2022-09-10T15:34:19.413Z,1.00
2022-09-10T15:36:47.488Z,1.00
2022-09-10T15:39:14.252Z,1.00
2022-09-10T15:41:42.551Z,1.00
2022-09-10T15:44:09.694Z,1.00
2022-09-10T15:46:39.952Z,1.00
2022-09-10T15:49:06.661Z,1.00
2022-09-10T15:51:33.380Z,1.00
2022-09-10T15:54:04.793Z,1.00
2022-09-10T15:56:32.655Z,1.00
2022-09-10T15:58:59.772Z,1.00
2022-09-10T16:01:30.991Z,4.00
2022-09-10T16:04:02.886Z,1.00
2022-09-10T16:06:33.434Z,1.00
2022-09-10T16:09:03.240Z,6.40
2022-09-10T16:11:32.309Z,1.00
2022-09-10T16:14:04.338Z,1.00
2022-09-10T16:16:32.255Z,1.00
2022-09-10T16:19:00.138Z,1.90
2022-09-10T16:21:29.644Z,2.90
2022-09-10T16:23:58.663Z,5.30
2022-09-10T16:26:28.660Z,9.50
2022-09-10T16:29:00.477Z,11.10
2022-09-10T16:31:36.284Z,14.30
2022-09-10T16:34:05.930Z,17.20
2022-09-10T16:36:34.599Z,18.80
2022-09-10T16:39:01.818Z,25.00
2022-09-10T16:41:29.298Z,27.70
2022-09-10T16:43:58.655Z,30.10
2022-09-10T16:46:26.792Z,36.50
2022-09-10T16:48:54.818Z,36.70
2022-09-10T16:51:24.325Z,38.60
2022-09-10T16:54:02.631Z,38.60
2022-09-10T16:56:34.178Z,32.00
2022-09-10T16:59:02.375Z,28.90
2022-09-10T17:01:29.708Z,34.90
2022-09-10T17:03:56.831Z,40.40
2022-09-10T17:06:25.794Z,41.10
2022-09-10T17:08:57.760Z,44.00
2022-09-10T17:11:26.397Z,41.80
2022-09-10T17:13:54.290Z,44.10
2022-09-10T17:16:21.007Z,48.00
2022-09-10T17:18:54.363Z,47.00
2022-09-10T17:21:21.047Z,49.70
2022-09-10T17:23:47.705Z,46.50
2022-09-10T17:26:14.443Z,49.80
2022-09-10T17:28:41.831Z,50.40
2022-09-10T17:31:08.646Z,51.90
2022-09-10T17:33:35.508Z,50.70
2022-09-10T17:36:03.915Z,52.70
2022-09-10T17:38:33.207Z,53.60
2022-09-10T17:41:03.320Z,52.90
2022-09-10T17:43:34.719Z,56.80
2022-09-10T17:46:06.097Z,55.30
2022-09-10T17:48:34.497Z,56.40
2022-09-10T17:51:01.902Z,58.80
2022-09-10T17:53:28.910Z,61.10
2022-09-10T17:56:01.243Z,64.30
2022-09-10T17:58:27.926Z,65.70
2022-09-10T18:00:58.894Z,66.70
2022-09-10T18:03:25.741Z,65.00
2022-09-10T18:05:52.805Z,67.40
2022-09-10T18:08:19.503Z,69.00
2022-09-10T18:10:46.689Z,67.80
2022-09-10T18:13:14.240Z,68.50
2022-09-10T18:15:46.459Z,69.80
2022-09-10T18:18:13.315Z,70.10
2022-09-10T18:20:39.986Z,72.10
2022-09-10T18:23:07.118Z,71.40
2022-09-10T18:25:33.892Z,74.70
2022-09-10T18:28:03.422Z,76.80
2022-09-10T18:30:30.752Z,80.30
2022-09-10T18:32:57.678Z,81.80
2022-09-10T18:35:24.423Z,82.80
2022-09-10T18:37:51.869Z,90.40
2022-09-10T18:40:19.627Z,88.40
2022-09-10T18:42:47.810Z,89.10
2022-09-10T18:45:15.039Z,89.80
2022-09-10T18:47:45.200Z,90.50
2022-09-10T18:50:13.344Z,90.30
2022-09-10T18:52:40.208Z,90.20
2022-09-10T18:55:07.241Z,90.70
2022-09-10T18:57:33.913Z,92.20
2022-09-10T19:00:02.871Z,92.60
2022-09-10T19:02:29.765Z,93.40
2022-09-10T19:05:12.517Z,94.20
2022-09-10T19:07:39.666Z,95.10
2022-09-10T19:10:07.487Z,95.80
2022-09-10T19:12:34.470Z,96.10
2022-09-10T19:15:01.155Z,96.10
2022-09-10T19:17:28.028Z,95.50
2022-09-10T19:19:54.687Z,96.00
2022-09-10T19:22:21.353Z,96.60
2022-09-10T19:24:55.060Z,96.60
2022-09-10T19:27:22.910Z,96.80
2022-09-10T19:29:50.167Z,96.40
2022-09-10T19:32:17.668Z,96.70
2022-09-10T19:34:44.465Z,96.90
2022-09-10T19:37:11.291Z,98.60
2022-09-10T19:39:38.513Z,97.60
2022-09-10T19:42:06.919Z,97.90
2022-09-10T19:44:33.830Z,96.90
2022-09-10T19:47:00.656Z,97.10
2022-09-10T19:49:27.575Z,97.40
2022-09-10T19:51:54.266Z,98.80
2022-09-10T19:54:22.792Z,98.00
2022-09-10T19:56:49.833Z,97.70
2022-09-10T19:59:16.965Z,97.80
2022-09-10T20:01:45.917Z,98.40
2022-09-10T20:04:14.087Z,99.90
2022-09-10T20:06:42.460Z,99.90
2022-09-10T20:09:12.629Z,99.90
2022-09-10T20:11:39.505Z,99.90
2022-09-10T20:14:11.255Z,99.90
2022-09-10T20:16:39.891Z,99.90
2022-09-10T20:19:07.797Z,99.90
2022-09-10T20:21:35.810Z,99.90
2022-09-10T20:24:02.687Z,99.90
2022-09-10T20:26:34.619Z,99.90
2022-09-10T20:29:03.993Z,99.90
2022-09-10T20:31:33.739Z,99.90
2022-09-10T20:34:03.560Z,99.90
2022-09-10T20:36:32.055Z,99.90
2022-09-10T20:38:59.097Z,99.90
2022-09-10T20:41:30.339Z,99.90
2022-09-10T20:43:59.012Z,99.90
2022-09-10T20:46:27.307Z,99.90
2022-09-10T20:48:55.022Z,99.90
2022-09-10T20:51:21.726Z,99.90
2022-09-10T20:53:48.507Z,99.90
2022-09-10T20:56:18.288Z,99.90
2022-09-10T20:58:46.343Z,99.90
2022-09-10T21:01:17.398Z,99.90
2022-09-10T21:03:44.863Z,99.90
2022-09-10T21:06:13.544Z,99.90
2022-09-10T21:08:42.152Z,99.90
2022-09-10T21:11:20.630Z,99.90
2022-09-10T21:13:50.380Z,99.90
2022-09-10T21:16:19.854Z,99.90
2022-09-10T21:18:53.605Z,99.90
2022-09-10T21:21:23.511Z,99.90
2022-09-10T21:23:52.352Z,99.90
2022-09-10T21:26:21.787Z,99.90
2022-09-10T21:28:51.226Z,99.90
2022-09-10T21:31:18.076Z,99.90
2022-09-10T21:33:46.173Z,99.90
2022-09-10T21:36:15.452Z,99.90
2022-09-10T21:38:46.413Z,99.90
2022-09-10T21:41:15.412Z,99.90
2022-09-10T21:43:43.840Z,99.90
2022-09-10T21:46:11.637Z,99.90
2022-09-10T21:48:39.964Z,99.90
2022-09-10T21:51:18.195Z,99.90
2022-09-10T21:53:45.587Z,99.90
2022-09-10T21:56:14.631Z,99.90
2022-09-10T21:58:43.439Z,99.90
2022-09-10T22:01:17.564Z,99.90
2022-09-10T22:03:47.188Z,99.90
2022-09-10T22:06:15.228Z,99.90
2022-09-10T22:08:43.901Z,99.90
2022-09-10T22:11:15.385Z,99.90
2022-09-10T22:13:43.658Z,99.90
2022-09-10T22:16:14.796Z,99.90
2022-09-10T22:18:42.107Z,99.90
2022-09-10T22:21:09.715Z,99.90
2022-09-10T22:23:38.395Z,99.90
2022-09-10T22:26:10.155Z,99.90
2022-09-10T22:28:38.351Z,99.90
2022-09-10T22:31:10.742Z,99.90
2022-09-10T22:33:38.865Z,99.90
2022-09-10T22:36:23.688Z,99.90
2022-09-10T22:39:01.689Z,99.90
2022-09-10T22:41:29.980Z,99.90
2022-09-10T22:43:57.142Z,99.90
2022-09-10T22:46:24.426Z,99.90
2022-09-10T22:48:51.226Z,99.90
2022-09-10T22:51:20.414Z,99.90
2022-09-10T22:53:48.178Z,99.90
2022-09-10T22:56:17.676Z,99.90
2022-09-10T22:58:45.666Z,99.90
2022-09-10T23:01:15.272Z,99.90
2022-09-10T23:03:43.275Z,99.90
2022-09-10T23:06:19.041Z,99.90
2022-09-10T23:08:48.406Z,99.90
2022-09-10T23:11:21.148Z,99.90
2022-09-10T23:13:54.004Z,99.90
2022-09-10T23:16:23.475Z,99.90
2022-09-10T23:18:54.788Z,99.90
2022-09-10T23:21:24.128Z,99.90
2022-09-10T23:23:53.650Z,99.90
2022-09-10T23:26:21.874Z,99.90
2022-09-10T23:28:49.302Z,99.90
2022-09-10T23:31:21.636Z,99.90
2022-09-10T23:33:55.390Z,99.90
2022-09-10T23:36:22.759Z,99.90
2022-09-10T23:38:49.616Z,99.90
2022-09-10T23:41:16.692Z,99.90
2022-09-10T23:43:44.513Z,99.90
2022-09-10T23:46:12.374Z,99.90
2022-09-10T23:48:39.540Z,99.90
2022-09-10T23:51:06.715Z,99.90
2022-09-10T23:53:33.784Z,99.90
2022-09-10T23:56:02.766Z,99.90
2022-09-10T23:58:29.949Z,99.90
